sensor_id;sensor_type;location;lat;lon;timestamp;P1;durP1;ratioP1;P2;durP2;ratioP2
3712;SDS011;1872;51.406;6.856;2023-08-17T00:00:14;6.77;;;5.97;;
3712;SDS011;1872;51.406;6.856;2023-08-17T00:02:43;7.60;;;6.90;;
3712;SDS011;1872;51.406;6.856;2023-08-17T00:05:08;7.37;;;6.67;;
3712;SDS011;1872;51.406;6.856;2023-08-17T00:07:35;7.87;;;7.13;;
3712;SDS011;1872;51.406;6.856;2023-08-17T00:10:01;8.13;;;7.40;;
3712;SDS011;1872;51.406;6.856;2023-08-17T00:12:27;8.00;;;7.20;;
3712;SDS011;1872;51.406;6.856;2023-08-17T00:14:53;9.40;;;8.40;;
3712;SDS011;1872;51.406;6.856;2023-08-17T00:17:19;8.70;;;7.80;;
3712;SDS011;1872;51.406;6.856;2023-08-17T00:19:46;8.83;;;7.93;;
3712;SDS011;1872;51.406;6.856;2023-08-17T00:22:12;11.00;;;8.70;;
3712;SDS011;1872;51.406;6.856;2023-08-17T00:24:38;11.07;;;9.00;;
3712;SDS011;1872;51.406;6.856;2023-08-17T00:27:06;9.40;;;8.00;;
3712;SDS011;1872;51.406;6.856;2023-08-17T00:29:32;8.60;;;7.80;;
3712;SDS011;1872;51.406;6.856;2023-08-17T00:32:00;10.87;;;9.10;;
3712;SDS011;1872;51.406;6.856;2023-08-17T00:34:26;10.03;;;9.03;;
3712;SDS011;1872;51.406;6.856;2023-08-17T00:36:52;11.03;;;9.20;;
3712;SDS011;1872;51.406;6.856;2023-08-17T00:39:17;12.10;;;9.20;;
3712;SDS011;1872;51.406;6.856;2023-08-17T00:41:45;11.13;;;9.57;;
3712;SDS011;1872;51.406;6.856;2023-08-17T00:44:10;11.37;;;9.23;;
3712;SDS011;1872;51.406;6.856;2023-08-17T00:46:36;13.60;;;9.80;;
3712;SDS011;1872;51.406;6.856;2023-08-17T00:49:03;16.17;;;10.70;;
3712;SDS011;1872;51.406;6.856;2023-08-17T00:51:30;10.63;;;9.53;;
3712;SDS011;1872;51.406;6.856;2023-08-17T00:53:57;9.73;;;8.70;;
3712;SDS011;1872;51.406;6.856;2023-08-17T00:56:24;11.20;;;10.00;;
3712;SDS011;1872;51.406;6.856;2023-08-17T00:58:51;11.20;;;10.10;;
3712;SDS011;1872;51.406;6.856;2023-08-17T01:01:16;12.60;;;9.80;;
3712;SDS011;1872;51.406;6.856;2023-08-17T01:03:42;10.90;;;9.33;;
3712;SDS011;1872;51.406;6.856;2023-08-17T01:06:08;11.20;;;10.17;;
3712;SDS011;1872;51.406;6.856;2023-08-17T01:08:35;10.90;;;9.20;;
3712;SDS011;1872;51.406;6.856;2023-08-17T01:14:17;12.40;;;9.30;;
3712;SDS011;1872;51.406;6.856;2023-08-17T01:19:27;9.70;;;8.70;;
3712;SDS011;1872;51.406;6.856;2023-08-17T01:22:06;10.23;;;8.83;;
3712;SDS011;1872;51.406;6.856;2023-08-17T01:24:33;12.27;;;9.90;;
3712;SDS011;1872;51.406;6.856;2023-08-17T01:26:59;11.90;;;10.77;;
3712;SDS011;1872;51.406;6.856;2023-08-17T01:29:25;10.23;;;9.23;;
3712;SDS011;1872;51.406;6.856;2023-08-17T01:34:20;10.47;;;9.43;;
3712;SDS011;1872;51.406;6.856;2023-08-17T01:36:53;12.47;;;9.90;;
3712;SDS011;1872;51.406;6.856;2023-08-17T01:39:23;12.70;;;9.27;;
3712;SDS011;1872;51.406;6.856;2023-08-17T01:41:55;12.93;;;8.90;;
3712;SDS011;1872;51.406;6.856;2023-08-17T01:44:23;10.60;;;9.37;;
3712;SDS011;1872;51.406;6.856;2023-08-17T01:46:50;9.97;;;8.97;;
3712;SDS011;1872;51.406;6.856;2023-08-17T01:49:16;12.07;;;9.40;;
3712;SDS011;1872;51.406;6.856;2023-08-17T01:51:41;10.80;;;9.70;;
3712;SDS011;1872;51.406;6.856;2023-08-17T01:54:07;10.43;;;9.33;;
3712;SDS011;1872;51.406;6.856;2023-08-17T01:56:33;12.43;;;10.30;;
3712;SDS011;1872;51.406;6.856;2023-08-17T01:58:59;12.30;;;10.00;;
3712;SDS011;1872;51.406;6.856;2023-08-17T02:01:25;13.93;;;9.70;;
3712;SDS011;1872;51.406;6.856;2023-08-17T02:03:51;9.67;;;8.67;;
3712;SDS011;1872;51.406;6.856;2023-08-17T02:06:16;12.00;;;9.03;;
3712;SDS011;1872;51.406;6.856;2023-08-17T02:08:42;10.47;;;9.03;;
3712;SDS011;1872;51.406;6.856;2023-08-17T02:11:09;12.23;;;8.53;;
3712;SDS011;1872;51.406;6.856;2023-08-17T02:13:35;11.23;;;9.23;;
3712;SDS011;1872;51.406;6.856;2023-08-17T02:16:02;12.83;;;9.37;;
3712;SDS011;1872;51.406;6.856;2023-08-17T02:18:28;11.73;;;9.50;;
3712;SDS011;1872;51.406;6.856;2023-08-17T02:20:56;10.83;;;9.37;;
3712;SDS011;1872;51.406;6.856;2023-08-17T02:23:22;11.40;;;10.00;;
3712;SDS011;1872;51.406;6.856;2023-08-17T02:25:48;12.37;;;9.63;;
3712;SDS011;1872;51.406;6.856;2023-08-17T02:28:13;11.47;;;9.53;;
3712;SDS011;1872;51.406;6.856;2023-08-17T02:30:39;14.17;;;10.17;;
3712;SDS011;1872;51.406;6.856;2023-08-17T02:33:04;12.47;;;10.77;;
3712;SDS011;1872;51.406;6.856;2023-08-17T02:35:30;14.53;;;11.03;;
3712;SDS011;1872;51.406;6.856;2023-08-17T02:37:56;11.97;;;10.13;;
3712;SDS011;1872;51.406;6.856;2023-08-17T02:40:21;12.80;;;10.00;;
3712;SDS011;1872;51.406;6.856;2023-08-17T02:42:47;11.87;;;10.67;;
3712;SDS011;1872;51.406;6.856;2023-08-17T02:45:13;10.83;;;9.83;;
3712;SDS011;1872;51.406;6.856;2023-08-17T02:47:38;14.80;;;10.40;;
3712;SDS011;1872;51.406;6.856;2023-08-17T02:50:04;11.10;;;10.00;;
3712;SDS011;1872;51.406;6.856;2023-08-17T02:52:30;11.63;;;10.23;;
3712;SDS011;1872;51.406;6.856;2023-08-17T02:54:56;15.00;;;10.27;;
3712;SDS011;1872;51.406;6.856;2023-08-17T02:57:21;14.40;;;11.13;;
3712;SDS011;1872;51.406;6.856;2023-08-17T02:59:47;11.57;;;10.27;;
3712;SDS011;1872;51.406;6.856;2023-08-17T03:02:12;11.27;;;10.07;;
3712;SDS011;1872;51.406;6.856;2023-08-17T03:04:38;11.03;;;9.83;;
3712;SDS011;1872;51.406;6.856;2023-08-17T03:07:04;12.90;;;10.70;;
3712;SDS011;1872;51.406;6.856;2023-08-17T03:09:29;14.33;;;10.23;;
3712;SDS011;1872;51.406;6.856;2023-08-17T03:11:55;11.30;;;9.10;;
3712;SDS011;1872;51.406;6.856;2023-08-17T03:14:21;11.90;;;10.50;;
3712;SDS011;1872;51.406;6.856;2023-08-17T03:16:46;11.10;;;9.57;;
3712;SDS011;1872;51.406;6.856;2023-08-17T03:19:12;12.13;;;9.50;;
3712;SDS011;1872;51.406;6.856;2023-08-17T03:21:38;11.80;;;8.53;;
3712;SDS011;1872;51.406;6.856;2023-08-17T03:24:03;10.07;;;8.80;;
3712;SDS011;1872;51.406;6.856;2023-08-17T03:26:29;10.07;;;8.10;;
3712;SDS011;1872;51.406;6.856;2023-08-17T03:28:55;10.13;;;9.13;;
3712;SDS011;1872;51.406;6.856;2023-08-17T03:31:21;9.23;;;8.33;;
3712;SDS011;1872;51.406;6.856;2023-08-17T03:33:47;10.07;;;8.33;;
3712;SDS011;1872;51.406;6.856;2023-08-17T03:36:12;11.07;;;9.87;;
3712;SDS011;1872;51.406;6.856;2023-08-17T03:38:38;9.93;;;8.83;;
3712;SDS011;1872;51.406;6.856;2023-08-17T03:41:04;12.47;;;9.30;;
3712;SDS011;1872;51.406;6.856;2023-08-17T03:43:30;10.30;;;8.87;;
3712;SDS011;1872;51.406;6.856;2023-08-17T03:45:56;14.33;;;9.27;;
3712;SDS011;1872;51.406;6.856;2023-08-17T03:48:22;10.63;;;9.30;;
3712;SDS011;1872;51.406;6.856;2023-08-17T03:50:51;10.00;;;8.70;;
3712;SDS011;1872;51.406;6.856;2023-08-17T03:53:19;9.23;;;8.33;;
3712;SDS011;1872;51.406;6.856;2023-08-17T03:55:48;12.27;;;8.80;;
3712;SDS011;1872;51.406;6.856;2023-08-17T03:58:15;10.60;;;7.30;;
3712;SDS011;1872;51.406;6.856;2023-08-17T04:00:48;9.90;;;8.90;;
3712;SDS011;1872;51.406;6.856;2023-08-17T04:03:17;9.33;;;7.53;;
3712;SDS011;1872;51.406;6.856;2023-08-17T04:05:42;9.23;;;8.33;;
3712;SDS011;1872;51.406;6.856;2023-08-17T04:08:08;11.90;;;8.17;;
3712;SDS011;1872;51.406;6.856;2023-08-17T04:10:34;8.97;;;8.07;;
3712;SDS011;1872;51.406;6.856;2023-08-17T04:12:59;9.73;;;8.10;;
3712;SDS011;1872;51.406;6.856;2023-08-17T04:15:25;9.63;;;7.80;;
3712;SDS011;1872;51.406;6.856;2023-08-17T04:17:53;8.50;;;7.70;;
3712;SDS011;1872;51.406;6.856;2023-08-17T04:20:19;10.10;;;8.90;;
3712;SDS011;1872;51.406;6.856;2023-08-17T04:22:44;9.27;;;8.00;;
3712;SDS011;1872;51.406;6.856;2023-08-17T04:25:10;10.03;;;8.47;;
3712;SDS011;1872;51.406;6.856;2023-08-17T04:27:36;9.90;;;8.90;;
3712;SDS011;1872;51.406;6.856;2023-08-17T04:30:01;13.20;;;9.00;;
3712;SDS011;1872;51.406;6.856;2023-08-17T04:32:27;9.37;;;8.47;;
3712;SDS011;1872;51.406;6.856;2023-08-17T04:34:53;10.87;;;8.60;;
3712;SDS011;1872;51.406;6.856;2023-08-17T04:37:18;9.60;;;8.70;;
3712;SDS011;1872;51.406;6.856;2023-08-17T04:39:44;13.67;;;9.90;;
3712;SDS011;1872;51.406;6.856;2023-08-17T04:42:10;11.27;;;8.80;;
3712;SDS011;1872;51.406;6.856;2023-08-17T04:44:36;12.63;;;9.77;;
3712;SDS011;1872;51.406;6.856;2023-08-17T04:47:01;11.63;;;8.40;;
3712;SDS011;1872;51.406;6.856;2023-08-17T04:49:27;12.50;;;8.93;;
3712;SDS011;1872;51.406;6.856;2023-08-17T04:51:53;11.00;;;9.57;;
3712;SDS011;1872;51.406;6.856;2023-08-17T04:54:19;10.23;;;9.10;;
3712;SDS011;1872;51.406;6.856;2023-08-17T04:56:44;11.07;;;8.53;;
3712;SDS011;1872;51.406;6.856;2023-08-17T04:59:10;10.50;;;8.60;;
3712;SDS011;1872;51.406;6.856;2023-08-17T05:01:36;10.17;;;8.90;;
3712;SDS011;1872;51.406;6.856;2023-08-17T05:04:02;10.73;;;8.83;;
3712;SDS011;1872;51.406;6.856;2023-08-17T05:06:28;12.70;;;9.50;;
3712;SDS011;1872;51.406;6.856;2023-08-17T05:08:54;12.93;;;10.50;;
3712;SDS011;1872;51.406;6.856;2023-08-17T05:11:20;15.77;;;9.10;;
3712;SDS011;1872;51.406;6.856;2023-08-17T05:13:45;16.70;;;10.40;;
3712;SDS011;1872;51.406;6.856;2023-08-17T05:16:11;10.77;;;9.67;;
3712;SDS011;1872;51.406;6.856;2023-08-17T05:18:37;11.33;;;9.70;;
3712;SDS011;1872;51.406;6.856;2023-08-17T05:21:03;13.10;;;10.23;;
3712;SDS011;1872;51.406;6.856;2023-08-17T05:23:29;14.40;;;10.43;;
3712;SDS011;1872;51.406;6.856;2023-08-17T05:25:55;12.83;;;10.07;;
3712;SDS011;1872;51.406;6.856;2023-08-17T05:28:20;10.77;;;9.50;;
3712;SDS011;1872;51.406;6.856;2023-08-17T05:30:46;12.50;;;11.03;;
3712;SDS011;1872;51.406;6.856;2023-08-17T05:33:12;12.00;;;10.30;;
3712;SDS011;1872;51.406;6.856;2023-08-17T05:35:37;14.00;;;10.30;;
3712;SDS011;1872;51.406;6.856;2023-08-17T05:38:03;16.50;;;10.83;;
3712;SDS011;1872;51.406;6.856;2023-08-17T05:40:32;16.83;;;9.40;;
3712;SDS011;1872;51.406;6.856;2023-08-17T05:42:58;12.43;;;10.00;;
3712;SDS011;1872;51.406;6.856;2023-08-17T05:45:23;13.20;;;10.77;;
3712;SDS011;1872;51.406;6.856;2023-08-17T05:47:49;16.90;;;12.03;;
3712;SDS011;1872;51.406;6.856;2023-08-17T05:50:15;15.20;;;11.67;;
3712;SDS011;1872;51.406;6.856;2023-08-17T05:52:41;16.53;;;11.40;;
3712;SDS011;1872;51.406;6.856;2023-08-17T05:55:07;15.67;;;11.17;;
3712;SDS011;1872;51.406;6.856;2023-08-17T05:57:33;12.67;;;10.03;;
3712;SDS011;1872;51.406;6.856;2023-08-17T05:59:59;14.03;;;10.60;;
3712;SDS011;1872;51.406;6.856;2023-08-17T06:02:24;13.43;;;10.80;;
3712;SDS011;1872;51.406;6.856;2023-08-17T06:04:50;13.37;;;11.10;;
3712;SDS011;1872;51.406;6.856;2023-08-17T06:07:15;14.97;;;11.40;;
3712;SDS011;1872;51.406;6.856;2023-08-17T06:09:41;13.07;;;10.27;;
3712;SDS011;1872;51.406;6.856;2023-08-17T06:12:07;11.50;;;9.87;;
3712;SDS011;1872;51.406;6.856;2023-08-17T06:14:33;16.53;;;11.97;;
3712;SDS011;1872;51.406;6.856;2023-08-17T06:16:59;12.87;;;9.67;;
3712;SDS011;1872;51.406;6.856;2023-08-17T06:19:25;14.03;;;10.93;;
3712;SDS011;1872;51.406;6.856;2023-08-17T06:21:51;17.50;;;11.23;;
3712;SDS011;1872;51.406;6.856;2023-08-17T06:24:17;15.23;;;11.43;;
3712;SDS011;1872;51.406;6.856;2023-08-17T06:26:43;15.23;;;12.00;;
3712;SDS011;1872;51.406;6.856;2023-08-17T06:29:10;17.47;;;12.20;;
3712;SDS011;1872;51.406;6.856;2023-08-17T06:31:36;19.67;;;12.07;;
3712;SDS011;1872;51.406;6.856;2023-08-17T06:34:02;17.73;;;14.07;;
3712;SDS011;1872;51.406;6.856;2023-08-17T06:36:30;17.40;;;13.37;;
3712;SDS011;1872;51.406;6.856;2023-08-17T06:38:56;16.07;;;12.60;;
3712;SDS011;1872;51.406;6.856;2023-08-17T06:41:22;22.73;;;14.20;;
3712;SDS011;1872;51.406;6.856;2023-08-17T06:43:47;19.57;;;13.40;;
3712;SDS011;1872;51.406;6.856;2023-08-17T06:46:13;21.50;;;15.03;;
3712;SDS011;1872;51.406;6.856;2023-08-17T06:48:39;16.60;;;13.70;;
3712;SDS011;1872;51.406;6.856;2023-08-17T06:51:04;18.73;;;13.87;;
3712;SDS011;1872;51.406;6.856;2023-08-17T06:53:30;19.53;;;13.87;;
3712;SDS011;1872;51.406;6.856;2023-08-17T06:55:56;17.10;;;14.20;;
3712;SDS011;1872;51.406;6.856;2023-08-17T06:58:21;17.40;;;13.67;;
3712;SDS011;1872;51.406;6.856;2023-08-17T07:00:47;17.27;;;13.53;;
3712;SDS011;1872;51.406;6.856;2023-08-17T07:03:13;15.00;;;12.20;;
3712;SDS011;1872;51.406;6.856;2023-08-17T07:05:38;15.33;;;13.10;;
3712;SDS011;1872;51.406;6.856;2023-08-17T07:08:04;19.73;;;13.53;;
3712;SDS011;1872;51.406;6.856;2023-08-17T07:10:30;17.80;;;14.10;;
3712;SDS011;1872;51.406;6.856;2023-08-17T07:12:56;18.57;;;14.70;;
3712;SDS011;1872;51.406;6.856;2023-08-17T07:15:21;21.87;;;14.73;;
3712;SDS011;1872;51.406;6.856;2023-08-17T07:17:47;18.30;;;13.37;;
3712;SDS011;1872;51.406;6.856;2023-08-17T07:20:13;18.90;;;14.60;;
3712;SDS011;1872;51.406;6.856;2023-08-17T07:22:38;17.93;;;14.60;;
3712;SDS011;1872;51.406;6.856;2023-08-17T07:25:04;17.30;;;14.07;;
3712;SDS011;1872;51.406;6.856;2023-08-17T07:27:30;20.87;;;14.20;;
3712;SDS011;1872;51.406;6.856;2023-08-17T07:29:55;24.23;;;14.40;;
3712;SDS011;1872;51.406;6.856;2023-08-17T07:32:21;24.37;;;15.43;;
3712;SDS011;1872;51.406;6.856;2023-08-17T07:34:47;17.53;;;13.73;;
3712;SDS011;1872;51.406;6.856;2023-08-17T07:37:13;18.10;;;14.30;;
3712;SDS011;1872;51.406;6.856;2023-08-17T07:39:40;21.37;;;14.00;;
3712;SDS011;1872;51.406;6.856;2023-08-17T07:42:05;19.60;;;13.37;;
3712;SDS011;1872;51.406;6.856;2023-08-17T07:44:31;22.73;;;14.73;;
3712;SDS011;1872;51.406;6.856;2023-08-17T07:46:58;20.60;;;14.23;;
3712;SDS011;1872;51.406;6.856;2023-08-17T07:49:24;20.10;;;14.10;;
3712;SDS011;1872;51.406;6.856;2023-08-17T07:51:50;20.83;;;15.20;;
3712;SDS011;1872;51.406;6.856;2023-08-17T07:54:15;20.17;;;14.40;;
3712;SDS011;1872;51.406;6.856;2023-08-17T07:56:41;21.03;;;14.43;;
3712;SDS011;1872;51.406;6.856;2023-08-17T07:59:07;19.73;;;12.40;;
3712;SDS011;1872;51.406;6.856;2023-08-17T08:01:32;18.87;;;14.60;;
3712;SDS011;1872;51.406;6.856;2023-08-17T08:03:58;17.67;;;13.40;;
3712;SDS011;1872;51.406;6.856;2023-08-17T08:06:24;18.87;;;13.47;;
3712;SDS011;1872;51.406;6.856;2023-08-17T08:08:51;20.10;;;14.13;;
3712;SDS011;1872;51.406;6.856;2023-08-17T08:11:16;20.27;;;14.00;;
3712;SDS011;1872;51.406;6.856;2023-08-17T08:13:42;18.50;;;14.40;;
3712;SDS011;1872;51.406;6.856;2023-08-17T08:16:08;18.53;;;13.57;;
3712;SDS011;1872;51.406;6.856;2023-08-17T08:18:33;18.53;;;13.97;;
3712;SDS011;1872;51.406;6.856;2023-08-17T08:20:59;17.87;;;13.47;;
3712;SDS011;1872;51.406;6.856;2023-08-17T08:23:25;20.17;;;14.63;;
3712;SDS011;1872;51.406;6.856;2023-08-17T08:25:51;21.63;;;13.57;;
3712;SDS011;1872;51.406;6.856;2023-08-17T08:28:16;21.83;;;15.63;;
3712;SDS011;1872;51.406;6.856;2023-08-17T08:30:42;17.50;;;14.17;;
3712;SDS011;1872;51.406;6.856;2023-08-17T08:33:08;20.40;;;13.70;;
3712;SDS011;1872;51.406;6.856;2023-08-17T08:38:11;17.00;;;12.70;;
3712;SDS011;1872;51.406;6.856;2023-08-17T08:40:39;17.60;;;13.33;;
3712;SDS011;1872;51.406;6.856;2023-08-17T08:43:07;19.47;;;12.70;;
3712;SDS011;1872;51.406;6.856;2023-08-17T08:45:35;19.73;;;13.20;;
3712;SDS011;1872;51.406;6.856;2023-08-17T08:48:02;18.70;;;13.60;;
3712;SDS011;1872;51.406;6.856;2023-08-17T08:50:29;19.67;;;14.63;;
3712;SDS011;1872;51.406;6.856;2023-08-17T08:53:00;19.43;;;14.13;;
3712;SDS011;1872;51.406;6.856;2023-08-17T08:55:29;18.90;;;12.77;;
3712;SDS011;1872;51.406;6.856;2023-08-17T08:57:59;22.67;;;15.10;;
3712;SDS011;1872;51.406;6.856;2023-08-17T09:00:25;20.33;;;14.07;;
3712;SDS011;1872;51.406;6.856;2023-08-17T09:02:51;18.83;;;14.37;;
3712;SDS011;1872;51.406;6.856;2023-08-17T09:05:18;21.40;;;14.10;;
3712;SDS011;1872;51.406;6.856;2023-08-17T09:07:44;17.40;;;13.60;;
3712;SDS011;1872;51.406;6.856;2023-08-17T09:10:16;20.23;;;14.83;;
3712;SDS011;1872;51.406;6.856;2023-08-17T09:12:42;21.07;;;12.87;;
3712;SDS011;1872;51.406;6.856;2023-08-17T09:15:10;18.37;;;13.23;;
3712;SDS011;1872;51.406;6.856;2023-08-17T09:17:36;19.30;;;13.20;;
3712;SDS011;1872;51.406;6.856;2023-08-17T09:20:02;19.10;;;13.63;;
3712;SDS011;1872;51.406;6.856;2023-08-17T09:22:38;21.30;;;15.77;;
3712;SDS011;1872;51.406;6.856;2023-08-17T09:25:05;18.63;;;13.77;;
3712;SDS011;1872;51.406;6.856;2023-08-17T09:27:31;18.33;;;12.77;;
3712;SDS011;1872;51.406;6.856;2023-08-17T09:30:01;21.67;;;14.80;;
3712;SDS011;1872;51.406;6.856;2023-08-17T09:32:31;19.33;;;15.37;;
3712;SDS011;1872;51.406;6.856;2023-08-17T09:35:00;20.60;;;14.83;;
3712;SDS011;1872;51.406;6.856;2023-08-17T09:37:26;21.00;;;15.50;;
3712;SDS011;1872;51.406;6.856;2023-08-17T09:39:53;22.10;;;16.83;;
3712;SDS011;1872;51.406;6.856;2023-08-17T09:42:18;20.73;;;15.67;;
3712;SDS011;1872;51.406;6.856;2023-08-17T09:44:46;18.10;;;14.17;;
3712;SDS011;1872;51.406;6.856;2023-08-17T09:47:12;20.13;;;15.40;;
3712;SDS011;1872;51.406;6.856;2023-08-17T09:49:38;19.17;;;14.00;;
3712;SDS011;1872;51.406;6.856;2023-08-17T09:52:04;20.70;;;14.77;;
3712;SDS011;1872;51.406;6.856;2023-08-17T09:54:30;21.10;;;16.00;;
3712;SDS011;1872;51.406;6.856;2023-08-17T09:56:59;22.70;;;15.80;;
3712;SDS011;1872;51.406;6.856;2023-08-17T09:59:27;21.47;;;16.10;;
3712;SDS011;1872;51.406;6.856;2023-08-17T10:01:53;23.33;;;15.77;;
3712;SDS011;1872;51.406;6.856;2023-08-17T10:04:23;21.13;;;16.30;;
3712;SDS011;1872;51.406;6.856;2023-08-17T10:07:00;20.60;;;15.90;;
3712;SDS011;1872;51.406;6.856;2023-08-17T10:09:31;19.93;;;15.13;;
3712;SDS011;1872;51.406;6.856;2023-08-17T10:12:06;22.20;;;16.53;;
3712;SDS011;1872;51.406;6.856;2023-08-17T10:14:36;19.93;;;15.10;;
3712;SDS011;1872;51.406;6.856;2023-08-17T10:17:11;21.57;;;15.30;;
3712;SDS011;1872;51.406;6.856;2023-08-17T10:19:44;23.57;;;16.67;;
3712;SDS011;1872;51.406;6.856;2023-08-17T10:22:21;19.83;;;15.47;;
3712;SDS011;1872;51.406;6.856;2023-08-17T10:25:09;21.20;;;16.40;;
3712;SDS011;1872;51.406;6.856;2023-08-17T10:27:38;20.57;;;15.40;;
3712;SDS011;1872;51.406;6.856;2023-08-17T10:30:05;20.50;;;16.03;;
3712;SDS011;1872;51.406;6.856;2023-08-17T10:32:31;21.90;;;15.30;;
3712;SDS011;1872;51.406;6.856;2023-08-17T10:34:57;18.53;;;14.57;;
3712;SDS011;1872;51.406;6.856;2023-08-17T10:37:23;23.80;;;15.90;;
3712;SDS011;1872;51.406;6.856;2023-08-17T10:39:49;19.90;;;14.63;;
3712;SDS011;1872;51.406;6.856;2023-08-17T10:42:15;20.53;;;14.67;;
3712;SDS011;1872;51.406;6.856;2023-08-17T10:44:58;18.27;;;13.80;;
3712;SDS011;1872;51.406;6.856;2023-08-17T10:47:32;19.03;;;13.80;;
3712;SDS011;1872;51.406;6.856;2023-08-17T10:54:53;20.30;;;15.17;;
3712;SDS011;1872;51.406;6.856;2023-08-17T10:57:30;18.33;;;15.13;;
3712;SDS011;1872;51.406;6.856;2023-08-17T11:00:34;23.27;;;17.80;;
3712;SDS011;1872;51.406;6.856;2023-08-17T11:03:03;25.30;;;18.90;;
3712;SDS011;1872;51.406;6.856;2023-08-17T11:05:37;23.87;;;19.80;;
3712;SDS011;1872;51.406;6.856;2023-08-17T11:08:04;24.70;;;18.10;;
3712;SDS011;1872;51.406;6.856;2023-08-17T11:10:31;24.70;;;18.10;;
3712;SDS011;1872;51.406;6.856;2023-08-17T11:12:57;21.07;;;16.73;;
3712;SDS011;1872;51.406;6.856;2023-08-17T11:15:36;19.47;;;15.07;;
3712;SDS011;1872;51.406;6.856;2023-08-17T11:18:10;17.40;;;14.20;;
3712;SDS011;1872;51.406;6.856;2023-08-17T11:20:38;20.73;;;15.33;;
3712;SDS011;1872;51.406;6.856;2023-08-17T11:23:08;17.30;;;14.60;;
3712;SDS011;1872;51.406;6.856;2023-08-17T11:25:34;20.97;;;14.33;;
3712;SDS011;1872;51.406;6.856;2023-08-17T11:28:01;18.53;;;14.67;;
3712;SDS011;1872;51.406;6.856;2023-08-17T11:30:28;16.00;;;13.90;;
3712;SDS011;1872;51.406;6.856;2023-08-17T11:32:54;17.63;;;13.97;;
3712;SDS011;1872;51.406;6.856;2023-08-17T11:35:23;17.67;;;15.13;;
3712;SDS011;1872;51.406;6.856;2023-08-17T11:37:48;19.80;;;15.47;;
3712;SDS011;1872;51.406;6.856;2023-08-17T11:40:14;19.13;;;14.37;;
3712;SDS011;1872;51.406;6.856;2023-08-17T11:42:41;19.63;;;16.40;;
3712;SDS011;1872;51.406;6.856;2023-08-17T11:45:07;20.80;;;17.00;;
3712;SDS011;1872;51.406;6.856;2023-08-17T11:47:40;21.03;;;16.10;;
3712;SDS011;1872;51.406;6.856;2023-08-17T11:50:08;19.23;;;15.83;;
3712;SDS011;1872;51.406;6.856;2023-08-17T11:52:38;17.80;;;16.00;;
3712;SDS011;1872;51.406;6.856;2023-08-17T11:55:04;19.50;;;16.47;;
3712;SDS011;1872;51.406;6.856;2023-08-17T11:57:31;20.30;;;17.73;;
3712;SDS011;1872;51.406;6.856;2023-08-17T11:59:58;18.77;;;16.40;;
3712;SDS011;1872;51.406;6.856;2023-08-17T12:02:25;17.53;;;15.23;;
3712;SDS011;1872;51.406;6.856;2023-08-17T12:04:52;18.83;;;15.53;;
3712;SDS011;1872;51.406;6.856;2023-08-17T12:07:18;20.70;;;16.03;;
3712;SDS011;1872;51.406;6.856;2023-08-17T12:09:48;20.77;;;16.07;;
3712;SDS011;1872;51.406;6.856;2023-08-17T12:12:17;16.67;;;14.77;;
3712;SDS011;1872;51.406;6.856;2023-08-17T12:14:45;20.90;;;16.17;;
3712;SDS011;1872;51.406;6.856;2023-08-17T12:17:16;19.73;;;16.87;;
3712;SDS011;1872;51.406;6.856;2023-08-17T12:19:48;26.30;;;18.50;;
3712;SDS011;1872;51.406;6.856;2023-08-17T12:22:16;23.73;;;19.07;;
3712;SDS011;1872;51.406;6.856;2023-08-17T12:24:42;24.83;;;19.70;;
3712;SDS011;1872;51.406;6.856;2023-08-17T12:27:08;29.20;;;21.20;;
3712;SDS011;1872;51.406;6.856;2023-08-17T12:29:56;26.53;;;21.40;;
3712;SDS011;1872;51.406;6.856;2023-08-17T12:32:21;28.53;;;21.97;;
3712;SDS011;1872;51.406;6.856;2023-08-17T12:34:47;30.10;;;21.03;;
3712;SDS011;1872;51.406;6.856;2023-08-17T12:37:18;26.10;;;20.60;;
3712;SDS011;1872;51.406;6.856;2023-08-17T12:39:45;27.20;;;19.40;;
3712;SDS011;1872;51.406;6.856;2023-08-17T12:42:11;31.40;;;21.70;;
3712;SDS011;1872;51.406;6.856;2023-08-17T12:44:38;24.83;;;18.93;;
3712;SDS011;1872;51.406;6.856;2023-08-17T12:47:04;30.77;;;21.13;;
3712;SDS011;1872;51.406;6.856;2023-08-17T12:49:30;24.03;;;19.03;;
3712;SDS011;1872;51.406;6.856;2023-08-17T12:51:55;29.20;;;18.97;;
3712;SDS011;1872;51.406;6.856;2023-08-17T12:54:21;28.83;;;19.80;;
3712;SDS011;1872;51.406;6.856;2023-08-17T12:56:47;24.07;;;18.20;;
3712;SDS011;1872;51.406;6.856;2023-08-17T12:59:13;27.80;;;20.20;;
3712;SDS011;1872;51.406;6.856;2023-08-17T13:01:38;28.60;;;18.63;;
3712;SDS011;1872;51.406;6.856;2023-08-17T13:04:05;28.87;;;18.87;;
3712;SDS011;1872;51.406;6.856;2023-08-17T13:06:31;23.67;;;17.50;;
3712;SDS011;1872;51.406;6.856;2023-08-17T13:08:57;26.90;;;19.07;;
3712;SDS011;1872;51.406;6.856;2023-08-17T13:11:23;24.30;;;18.83;;
3712;SDS011;1872;51.406;6.856;2023-08-17T13:13:48;24.40;;;17.85;;
3712;SDS011;1872;51.406;6.856;2023-08-17T13:16:14;27.00;;;19.40;;
3712;SDS011;1872;51.406;6.856;2023-08-17T13:18:40;23.77;;;18.50;;
3712;SDS011;1872;51.406;6.856;2023-08-17T13:21:06;26.97;;;18.50;;
3712;SDS011;1872;51.406;6.856;2023-08-17T13:23:31;25.53;;;18.30;;
3712;SDS011;1872;51.406;6.856;2023-08-17T13:25:57;21.07;;;18.20;;
3712;SDS011;1872;51.406;6.856;2023-08-17T13:28:23;28.57;;;19.47;;
3712;SDS011;1872;51.406;6.856;2023-08-17T13:30:49;24.83;;;18.10;;
3712;SDS011;1872;51.406;6.856;2023-08-17T13:33:15;25.73;;;18.07;;
3712;SDS011;1872;51.406;6.856;2023-08-17T13:35:41;21.43;;;16.90;;
3712;SDS011;1872;51.406;6.856;2023-08-17T13:38:07;25.60;;;17.97;;
3712;SDS011;1872;51.406;6.856;2023-08-17T13:40:33;23.87;;;18.30;;
3712;SDS011;1872;51.406;6.856;2023-08-17T13:43:01;24.90;;;18.17;;
3712;SDS011;1872;51.406;6.856;2023-08-17T13:45:28;23.50;;;18.70;;
3712;SDS011;1872;51.406;6.856;2023-08-17T13:47:54;27.53;;;19.37;;
3712;SDS011;1872;51.406;6.856;2023-08-17T13:50:19;26.83;;;20.33;;
3712;SDS011;1872;51.406;6.856;2023-08-17T13:52:45;28.80;;;20.90;;
3712;SDS011;1872;51.406;6.856;2023-08-17T13:55:12;28.47;;;21.50;;
3712;SDS011;1872;51.406;6.856;2023-08-17T13:57:40;32.60;;;22.50;;
3712;SDS011;1872;51.406;6.856;2023-08-17T14:00:06;29.47;;;21.00;;
3712;SDS011;1872;51.406;6.856;2023-08-17T14:02:33;29.27;;;20.97;;
3712;SDS011;1872;51.406;6.856;2023-08-17T14:04:59;29.30;;;21.30;;
3712;SDS011;1872;51.406;6.856;2023-08-17T14:07:24;29.33;;;21.77;;
3712;SDS011;1872;51.406;6.856;2023-08-17T14:09:53;31.27;;;20.67;;
3712;SDS011;1872;51.406;6.856;2023-08-17T14:12:18;29.77;;;20.93;;
3712;SDS011;1872;51.406;6.856;2023-08-17T14:14:44;31.63;;;21.03;;
3712;SDS011;1872;51.406;6.856;2023-08-17T14:17:09;25.80;;;19.20;;
3712;SDS011;1872;51.406;6.856;2023-08-17T14:19:36;26.43;;;19.07;;
3712;SDS011;1872;51.406;6.856;2023-08-17T14:22:02;26.93;;;20.00;;
3712;SDS011;1872;51.406;6.856;2023-08-17T14:24:28;27.60;;;19.87;;
3712;SDS011;1872;51.406;6.856;2023-08-17T14:26:53;28.00;;;21.17;;
3712;SDS011;1872;51.406;6.856;2023-08-17T14:29:19;29.33;;;19.43;;
3712;SDS011;1872;51.406;6.856;2023-08-17T14:31:45;24.77;;;18.70;;
3712;SDS011;1872;51.406;6.856;2023-08-17T14:34:10;28.53;;;19.43;;
3712;SDS011;1872;51.406;6.856;2023-08-17T14:36:36;23.70;;;16.33;;
3712;SDS011;1872;51.406;6.856;2023-08-17T14:39:02;23.53;;;18.40;;
3712;SDS011;1872;51.406;6.856;2023-08-17T14:41:28;25.67;;;17.20;;
3712;SDS011;1872;51.406;6.856;2023-08-17T14:43:57;25.70;;;18.03;;
3712;SDS011;1872;51.406;6.856;2023-08-17T14:46:24;21.63;;;15.37;;
3712;SDS011;1872;51.406;6.856;2023-08-17T14:48:51;27.53;;;15.40;;
3712;SDS011;1872;51.406;6.856;2023-08-17T14:51:17;19.80;;;15.70;;
3712;SDS011;1872;51.406;6.856;2023-08-17T14:53:43;17.50;;;14.00;;
3712;SDS011;1872;51.406;6.856;2023-08-17T14:56:09;25.00;;;15.57;;
3712;SDS011;1872;51.406;6.856;2023-08-17T14:58:35;18.40;;;14.73;;
3712;SDS011;1872;51.406;6.856;2023-08-17T15:01:00;19.70;;;15.77;;
3712;SDS011;1872;51.406;6.856;2023-08-17T15:03:26;19.17;;;15.50;;
3712;SDS011;1872;51.406;6.856;2023-08-17T15:05:54;18.10;;;14.50;;